Terminal Aerodrome Forecast
Issued by NWS Springfield, MO

Home | Current Version | Previous Version | Text Only | Print | Product List | Glossary On
Versions: 1 2 3 4 5 6 7 8 9 10 11 12 13 14 15 16 17 18 19 20 21 22 23 24 25
000
FTUS43 KSGF 251134
TAFSGF
TAF
KSGF 251134Z 2512/2612 19010KT 6SM -SHRA VCTS SCT025CB BKN050
      OVC100
      TEMPO 2512/2516 5SM -SHRA BR BKN025 OVC050
     FM251600 18015KT P6SM SCT035 BKN100 OVC200
     FM251900 18016KT P6SM SCT040 SCT120
     FM260500 18010KT P6SM SCT015 BKN035=

USA.gov is the U.S. government's official web portal to all federal, state and local government web resources and services.